FACT/CPT METAR and TAF weather

Enter ICAO airport designator
Station Type Date Time Source
FACT METAR 2019/04/19 22:00 UTC NOAA

FACT 192200Z 34008KT 9999 FEW030 16/15 Q1017 NOSIG


Station Type Date Time Source
FACT Decoded METAR 2019/04/19 22:00 UTC NOAA

Cape Town, Cape Town International Airport, South Africa (FACT) 33-59S 018-36E 0M
Apr 19, 2019 - 06:00 PM EDT / 2019.04.19 2200 UTC
Wind: from the NNW (340 degrees) at 9 MPH (8 KT):0
Visibility: greater than 7 mile(s):0
Sky conditions: mostly clear
Temperature: 60 F (16 C)
Dew Point: 59 F (15 C)
Relative Humidity: 93%
Pressure (altimeter): 30.03 in. Hg (1017 hPa)
ob: FACT 192200Z 34008KT 9999 FEW030 16/15 Q1017 NOSIG
cycle: 22

Station Type Date Time Source
FACT TAF 2019/04/19 18:27 UTC NOAA

TAF TAF FACT 191600Z 1918/2024 34012KT 9999 SCT010 BKN025 TX20/2012Z TN13/2005Z PROB40
TEMPO 1918/1921 4000 -RA BKN008
FM200000 35008KT 9999 BKN030
FM201100 23012KT 9999 SCT030
BECMG 2014/2016 17014KT

Example: see airport list